PKNJT WAAA-PTRO
Flight info
| Callsign | PKNJT |
|---|---|
| Flight time | N/A |
| Altitude | 37000 |
| Route | MKS DIOLA LWK MNO |
| Aircraft | LJ35/M-V/N |
Departure
| Time | N/A |
|---|---|
| Airport | Sultan Hasanuddin International Airport (WAAA) |
Arrival
| Time | 2026-05-04 10:20 |
|---|---|
| Airport | Roman Tmetuchl International Airport (PTRO) |
| Time | Latitude | Longitude | Altitude | Speed | Heading |
|---|---|---|---|---|---|
| 2026-05-04 09:26 | 4.79778 | 127.99668 | 36858 ft | 430 kts | 41° |
| 2026-05-04 09:26 | 4.82052 | 128.01619 | 36860 ft | 430 kts | 41° |
| 2026-05-04 09:27 | 4.86616 | 128.05535 | 36852 ft | 431 kts | 41° |
| 2026-05-04 09:27 | 4.91155 | 128.09429 | 36857 ft | 431 kts | 41° |
| 2026-05-04 09:28 | 4.95714 | 128.13340 | 36855 ft | 431 kts | 41° |
| 2026-05-04 09:28 | 5.00269 | 128.17247 | 36853 ft | 431 kts | 41° |
| 2026-05-04 09:29 | 5.04830 | 128.21160 | 36860 ft | 431 kts | 41° |
| 2026-05-04 09:29 | 5.09391 | 128.25074 | 36852 ft | 431 kts | 41° |
| 2026-05-04 09:30 | 5.13948 | 128.28984 | 36859 ft | 432 kts | 41° |
| 2026-05-04 09:30 | 5.16069 | 128.31104 | 36854 ft | 430 kts | 54° |
| 2026-05-04 09:30 | 5.17606 | 128.33666 | 36851 ft | 428 kts | 64° |
| 2026-05-04 09:31 | 5.19982 | 128.39140 | 36866 ft | 428 kts | 69° |
| 2026-05-04 09:31 | 5.22135 | 128.44708 | 36865 ft | 428 kts | 70° |
| 2026-05-04 09:32 | 5.24273 | 128.50286 | 36872 ft | 428 kts | 69° |
| 2026-05-04 09:34 | 5.33016 | 128.72500 | 36870 ft | 429 kts | 69° |
| 2026-05-04 09:34 | 5.35220 | 128.78105 | 36869 ft | 429 kts | 69° |
| 2026-05-04 09:35 | 5.37401 | 128.83674 | 36870 ft | 429 kts | 69° |
| 2026-05-04 09:35 | 5.39576 | 128.89248 | 36870 ft | 429 kts | 70° |
| 2026-05-04 09:37 | 5.48248 | 129.11543 | 36876 ft | 429 kts | 70° |
| 2026-05-04 09:38 | 5.50405 | 129.17124 | 36878 ft | 429 kts | 70° |
| 2026-05-04 09:38 | 5.52555 | 129.22704 | 36879 ft | 429 kts | 70° |
| 2026-05-04 09:39 | 5.54699 | 129.28289 | 36875 ft | 429 kts | 70° |
| 2026-05-04 09:39 | 5.56847 | 129.33876 | 37073 ft | 431 kts | 70° |
| 2026-05-04 09:40 | 5.57948 | 129.36667 | 37649 ft | 431 kts | 69° |
| 2026-05-04 09:40 | 5.59068 | 129.39477 | 38037 ft | 434 kts | 69° |
| 2026-05-04 09:40 | 5.60193 | 129.42296 | 38437 ft | 437 kts | 69° |
| 2026-05-04 09:40 | 5.61328 | 129.45138 | 38779 ft | 440 kts | 69° |
| 2026-05-04 09:41 | 5.62469 | 129.47996 | 39088 ft | 442 kts | 69° |
| 2026-05-04 09:42 | 5.70560 | 129.68282 | 40699 ft | 451 kts | 69° |
| 2026-05-04 09:43 | 5.71729 | 129.71216 | 40821 ft | 452 kts | 69° |
| 2026-05-04 09:43 | 5.72897 | 129.74149 | 40870 ft | 454 kts | 69° |
| 2026-05-04 09:43 | 5.75244 | 129.80065 | 40871 ft | 457 kts | 70° |
| 2026-05-04 09:44 | 5.77586 | 129.85995 | 40871 ft | 457 kts | 70° |
| 2026-05-04 09:46 | 5.86514 | 130.09842 | 40872 ft | 456 kts | 71° |
| 2026-05-04 09:46 | 5.88711 | 130.15810 | 40874 ft | 456 kts | 71° |
| 2026-05-04 09:47 | 5.90901 | 130.21781 | 40878 ft | 455 kts | 71° |
| 2026-05-04 09:49 | 5.98566 | 130.41989 | 40869 ft | 434 kts | 70° |
| 2026-05-04 09:49 | 5.99645 | 130.44818 | 40863 ft | 433 kts | 70° |
| 2026-05-04 09:51 | 6.07100 | 130.64511 | 40867 ft | 429 kts | 70° |
| 2026-05-04 09:51 | 6.09206 | 130.70124 | 40864 ft | 429 kts | 71° |
| 2026-05-04 09:52 | 6.11304 | 130.75736 | 40868 ft | 429 kts | 71° |
| 2026-05-04 09:52 | 6.13398 | 130.81352 | 40868 ft | 429 kts | 71° |
| 2026-05-04 09:53 | 6.15481 | 130.86960 | 40871 ft | 429 kts | 71° |
| 2026-05-04 09:53 | 6.17559 | 130.92577 | 40864 ft | 428 kts | 71° |
| 2026-05-04 09:54 | 6.19625 | 130.98194 | 40869 ft | 428 kts | 71° |
| 2026-05-04 09:54 | 6.21678 | 131.03803 | 40871 ft | 428 kts | 71° |
| 2026-05-04 09:55 | 6.23727 | 131.09420 | 40871 ft | 428 kts | 71° |
| 2026-05-04 09:55 | 6.25794 | 131.15024 | 40870 ft | 428 kts | 70° |
| 2026-05-04 09:56 | 6.35054 | 131.39521 | 40880 ft | 430 kts | 70° |
| 2026-05-04 09:56 | 6.49052 | 131.77224 | 40887 ft | 430 kts | 70° |
| 2026-05-04 09:57 | 6.67873 | 132.29827 | 40890 ft | 430 kts | 71° |
| 2026-05-04 09:57 | 6.83640 | 132.75231 | 40891 ft | 431 kts | 71° |
| 2026-05-04 09:58 | 6.96858 | 133.13408 | 40890 ft | 431 kts | 71° |
| 2026-05-04 09:58 | 7.02751 | 133.30705 | 40885 ft | 431 kts | 71° |
| 2026-05-04 10:00 | 7.10253 | 133.53107 | 40881 ft | 427 kts | 71° |
| 2026-05-04 10:02 | 7.16441 | 133.71320 | 36668 ft | 375 kts | 71° |
| 2026-05-04 10:04 | 7.22141 | 133.88047 | 31284 ft | 346 kts | 71° |
| 2026-05-04 10:04 | 7.22930 | 133.90326 | 30553 ft | 343 kts | 71° |
| 2026-05-04 10:04 | 7.23713 | 133.92573 | 29888 ft | 337 kts | 71° |
| 2026-05-04 10:04 | 7.24488 | 133.94777 | 29130 ft | 332 kts | 71° |
| 2026-05-04 10:05 | 7.25247 | 133.96949 | 28352 ft | 328 kts | 71° |
| 2026-05-04 10:05 | 7.25990 | 133.99097 | 27677 ft | 321 kts | 71° |
| 2026-05-04 10:05 | 7.26698 | 134.01210 | 26965 ft | 317 kts | 71° |
| 2026-05-04 10:05 | 7.27377 | 134.03316 | 26254 ft | 314 kts | 72° |
| 2026-05-04 10:06 | 7.28037 | 134.05396 | 25581 ft | 311 kts | 72° |
| 2026-05-04 10:06 | 7.28689 | 134.07460 | 24929 ft | 307 kts | 72° |
| 2026-05-04 10:06 | 7.29329 | 134.09497 | 24286 ft | 304 kts | 72° |
| 2026-05-04 10:08 | 7.32921 | 134.21291 | 20329 ft | 284 kts | 72° |
| 2026-05-04 10:08 | 7.33479 | 134.23189 | 19699 ft | 281 kts | 72° |
| 2026-05-04 10:08 | 7.34035 | 134.25074 | 19070 ft | 280 kts | 72° |
| 2026-05-04 10:08 | 7.34595 | 134.26938 | 18500 ft | 276 kts | 71° |
| 2026-05-04 10:09 | 7.35153 | 134.28770 | 17963 ft | 271 kts | 71° |
| 2026-05-04 10:09 | 7.35701 | 134.30570 | 17310 ft | 268 kts | 71° |
| 2026-05-04 10:09 | 7.36250 | 134.32383 | 16666 ft | 266 kts | 71° |
| 2026-05-04 10:09 | 7.36779 | 134.34132 | 16064 ft | 263 kts | 71° |
| 2026-05-04 10:10 | 7.37306 | 134.35889 | 15459 ft | 261 kts | 71° |
| 2026-05-04 10:10 | 7.37829 | 134.37632 | 14885 ft | 258 kts | 71° |
| 2026-05-04 10:10 | 7.38344 | 134.39358 | 14317 ft | 257 kts | 71° |
| 2026-05-04 10:10 | 7.38853 | 134.41072 | 13768 ft | 254 kts | 71° |
| 2026-05-04 10:11 | 7.39354 | 134.42772 | 13167 ft | 252 kts | 72° |
| 2026-05-04 10:11 | 7.39853 | 134.44460 | 12546 ft | 251 kts | 72° |
| 2026-05-04 10:11 | 7.40346 | 134.46135 | 11962 ft | 248 kts | 72° |
| 2026-05-04 10:11 | 7.40832 | 134.47797 | 11382 ft | 246 kts | 72° |
| 2026-05-04 10:12 | 7.41311 | 134.49450 | 10824 ft | 244 kts | 72° |
| 2026-05-04 10:12 | 7.41781 | 134.51087 | 10239 ft | 243 kts | 72° |
| 2026-05-04 10:12 | 7.42247 | 134.52711 | 9702 ft | 240 kts | 72° |
| 2026-05-04 10:12 | 7.42684 | 134.54330 | 9098 ft | 238 kts | 72° |
| 2026-05-04 10:13 | 7.43148 | 134.55915 | 8540 ft | 235 kts | 71° |
| 2026-05-04 10:13 | 7.43609 | 134.57497 | 8002 ft | 235 kts | 71° |
| 2026-05-04 10:13 | 7.44056 | 134.59068 | 7520 ft | 232 kts | 72° |
| 2026-05-04 10:13 | 7.44487 | 134.60630 | 7004 ft | 232 kts | 77° |
| 2026-05-04 10:14 | 7.44260 | 134.62226 | 6554 ft | 237 kts | 114° |
| 2026-05-04 10:14 | 7.43126 | 134.63435 | 6027 ft | 244 kts | 148° |
| 2026-05-04 10:16 | 7.32263 | 134.62740 | 3206 ft | 226 kts | 256° |
| 2026-05-04 10:16 | 7.32268 | 134.61227 | 3200 ft | 213 kts | 288° |
| 2026-05-04 10:16 | 7.32875 | 134.59924 | 3202 ft | 206 kts | 316° |
| 2026-05-04 10:16 | 7.33945 | 134.58932 | 3210 ft | 213 kts | 320° |
| 2026-05-04 10:17 | 7.35020 | 134.57872 | 3217 ft | 219 kts | 318° |
| 2026-05-04 10:17 | 7.36122 | 134.56788 | 3222 ft | 225 kts | 318° |
| 2026-05-04 10:19 | 7.36664 | 134.57624 | 1461 ft | 199 kts | 264° |
| 2026-05-04 10:19 | 7.36626 | 134.56282 | 693 ft | 186 kts | 273° |
| 2026-05-04 10:19 | 7.36716 | 134.55038 | 168 ft | 165 kts | 271° |
| 2026-05-04 10:19 | 7.36736 | 134.54060 | 166 ft | 91 kts | 270° |
| 2026-05-04 10:20 | 7.36745 | 134.53768 | 165 ft | 9 kts | 276° |
| 2026-05-04 10:20 | 7.36762 | 134.53735 | 165 ft | 6 kts | 35° |
| 2026-05-04 10:20 | 7.36804 | 134.53766 | 166 ft | 11 kts | 3° |
| 2026-05-04 10:20 | 7.36856 | 134.53733 | 167 ft | 8 kts | 266° |
| 2026-05-04 10:21 | 7.36855 | 134.53661 | 167 ft | 12 kts | 277° |
| 2026-05-04 10:21 | 7.36885 | 134.53632 | 167 ft | 3 kts | 5° |
| 2026-05-04 10:21 | 7.36935 | 134.53635 | 167 ft | 1 kts | 3° |
| 2026-05-04 10:21 | 7.36936 | 134.53635 | 167 ft | 0 kts | 3° |